METAR-Meldungen aus der Umgebung


Warning: A non-numeric value encountered in /homepages/1/d50633195/htdocs/bad-muskau-wetter/weather28/metar/metarDisplay.php on line 168

Warning: A non-numeric value encountered in /homepages/1/d50633195/htdocs/bad-muskau-wetter/weather28/metar/metarDisplay.php on line 168
   
EDDC - Dresden/Klotzsch, Germany
Entfernung von der Station bis: SW 82 km
Aktualisierung: 23-05-2019 08:50
Klar  
Klar  
   Wind: NW 13 km/h
Wind: NW 13 km/h
Temperatur: 10°C
Gefühlt: 8°C
Taupunkt: 7°C
Luftfeuchte: 82%
Luftdruck: 1019 hPa
Sichtbarkeit: More than 10 km
Bewölkung: Klar
EDDC 230650Z 32007KT 280V350 CAVOK 10/07 Q1019 NOSIG
EPZG - Zielona Gora, Poland
Entfernung von der Station bis: NO 99 km
Aktualisierung: 23-05-2019 09:00
Bewölkt  
Bewölkt  
   Wind: Westen 14.8 km/h
Wind: Westen 14.8 km/h
Temperatur: 11°C
Taupunkt: 10°C
Luftfeuchte: 94%
Luftdruck: 1016 hPa
Bewölkt: Bewölkt
Sichtbarkeit: More than 10 km
Bewölkung: Stark bewölkt 1700 ft,
Bewölkt 4500 ft
EPZG 230700Z 28008KT 260V320 9999 BKN017 OVC045 11/10 Q1016
ETSH - Holzdorf, Germany
Entfernung von der Station bis: WNW 110 km
Aktualisierung: 23-05-2019 08:20
Teilweise bewölkt  
Teilweise bewölkt  
   Wind: WNW 7.4 km/h
Wind: WNW 7.4 km/h
Temperatur: 12°C
Taupunkt: 7°C
Luftfeuchte: 72%
Luftdruck: 1019 hPa
Bewölkt: Teilweise bewölkt
Sichtbarkeit: More than 10 km
Bewölkung: leicht bewölkt 1700 ft,
Teilweise bewölkt 36000 ft
ETSH 230620Z 30004KT 9999 FEW017 SCT360 12/07 Q1019 BLU+BLU+
EDDB - Berlin/Schonefel, Germany
Entfernung von der Station bis: NW 124 km
Aktualisierung: 23-05-2019 08:50
leicht bewölkt  
leicht bewölkt  
   Wind: NW 14.8 km/h
Wind: NW 14.8 km/h
Temperatur: 13°C
Taupunkt: 7°C
Luftfeuchte: 67%
Luftdruck: 1018 hPa
Bewölkt: leicht bewölkt
Sichtbarkeit: More than 10 km
Bewölkung: leicht bewölkt 2000 ft
EDDB 230650Z 32008KT 280V340 9999 FEW020 13/07 Q1018 NOSIG
EDDT - Berlin/Tegel (fa, Germany
Entfernung von der Station bis: NW 149 km
Aktualisierung: 23-05-2019 08:50
leicht bewölkt  
leicht bewölkt  
   Wind: WNW 13 km/h
Wind: WNW 13 km/h
Temperatur: 12°C
Taupunkt: 8°C
Luftfeuchte: 77%
Luftdruck: 1018 hPa
Bewölkt: leicht bewölkt
Sichtbarkeit: More than 10 km
Bewölkung: leicht bewölkt 1500 ft
EDDT 230650Z 29007KT 250V340 9999 FEW015 12/08 Q1018 NOSIG
LKVO - Vodochody, Czech Republic
Entfernung von der Station bis: S 149 km
Aktualisierung: 23-05-2019 08:00
Leichter Niederschlag möglich, Stark bewölkt  
Leichter Niederschlag möglich, Stark bewölkt  
   Wind: WNW 16.7 km/h
Wind: WNW 16.7 km/h
Temperatur: 10°C
Gefühlt: 8°C
Taupunkt: 7°C
Luftfeuchte: 82%
Luftdruck: 1018 hPa
Bewölkt: Stark bewölkt
Sichtbarkeit: More than 10 km
Bewölkung: Stark bewölkt 6300 ft
LKVO 230600Z 30009KT 9999 -RA BKN063 10/07 Q1018
EPWR - Wroclaw/Strachow, Poland
Entfernung von der Station bis: OSO 157 km
Aktualisierung: 23-05-2019 09:00
Leichter Niederschlag möglich, Nieselregen, Stark bewölkt  
Leichter Niederschlag möglich, Nieselregen, Stark bewölkt  
   Wind: WNW 24.1 km/h
Wind: WNW 24.1 km/h
Temperatur: 10°C
Gefühlt: 7°C
Taupunkt: 9°C
Luftfeuchte: 94%
Luftdruck: 1016 hPa
Bewölkt: Stark bewölkt
Sichtbarkeit: More than 10 km
Bewölkung: Teilweise bewölkt 700 ft,
Stark bewölkt 1100 ft
EPWR 230700Z 30013KT 9999 -RADZ SCT007 BKN011 10/09 Q1016
LKKB - Kbely, Czech Republic
Entfernung von der Station bis: S 159 km
Aktualisierung: 23-05-2019 08:34
Leichter Niederschlag möglich, Teilweise bewölkt  
Leichter Niederschlag möglich, Teilweise bewölkt  
   Wind: Westen 9.3 km/h
Wind: Westen 9.3 km/h
Temperatur: 10°C
Gefühlt: 9°C
Taupunkt: 6°C
Luftfeuchte: 76%
Luftdruck: 1018 hPa
Bewölkt: Teilweise bewölkt
Sichtbarkeit: More than 10 km
Bewölkung: Teilweise bewölkt
LKKB 230634Z 28005KT 250V310 9999 -RA NSC 10/06 Q1018 RMK BLU
 

Script entwickelt von  Saratoga-weather.org Angepasst für das Template von  Weerstation Leuven